createdAt,value
2022-07-29T00:00:18.547Z,20.10
2022-07-29T00:01:00.337Z,20.00
2022-07-29T00:01:43.209Z,20.00
2022-07-29T00:02:24.947Z,20.10
2022-07-29T00:03:06.824Z,20.00
2022-07-29T00:03:49.198Z,20.00
2022-07-29T00:04:31.039Z,20.00
2022-07-29T00:05:14.498Z,20.00
2022-07-29T00:05:56.698Z,20.00
2022-07-29T00:06:38.777Z,20.00
2022-07-29T00:07:20.714Z,19.90
2022-07-29T00:08:02.473Z,19.90
2022-07-29T00:08:44.208Z,19.90
2022-07-29T00:09:25.937Z,19.90
2022-07-29T00:10:07.847Z,19.90
2022-07-29T00:10:49.533Z,20.00
2022-07-29T00:11:31.322Z,19.90
2022-07-29T00:12:13.040Z,19.90
2022-07-29T00:12:55.692Z,19.90
2022-07-29T00:13:37.412Z,19.90
2022-07-29T00:14:19.273Z,19.90
2022-07-29T00:15:01.096Z,19.90
2022-07-29T00:15:42.850Z,19.90
2022-07-29T00:16:24.580Z,20.00
2022-07-29T00:17:06.546Z,19.90
2022-07-29T00:17:48.236Z,19.90
2022-07-29T00:18:29.937Z,19.90
2022-07-29T00:19:12.050Z,20.00
2022-07-29T00:19:54.357Z,20.00
2022-07-29T00:20:36.104Z,19.90
2022-07-29T00:21:17.863Z,19.90
2022-07-29T00:21:59.813Z,19.90
2022-07-29T00:22:41.546Z,19.90
2022-07-29T00:23:23.555Z,19.90
2022-07-29T00:24:05.427Z,19.90
2022-07-29T00:24:49.853Z,19.90
2022-07-29T00:25:31.569Z,19.90
2022-07-29T00:26:15.638Z,19.90
2022-07-29T00:26:57.350Z,19.90
2022-07-29T00:27:39.184Z,19.80
2022-07-29T00:28:20.998Z,19.80
2022-07-29T00:29:33.117Z,19.90
2022-07-29T00:30:07.963Z,19.80
2022-07-29T00:30:50.252Z,19.80
2022-07-29T00:31:32.093Z,19.80
2022-07-29T00:32:13.881Z,19.80
2022-07-29T00:32:55.597Z,19.80
2022-07-29T00:33:37.442Z,19.70
2022-07-29T00:34:37.786Z,19.80
2022-07-29T00:35:38.149Z,19.80
2022-07-29T00:36:21.699Z,19.80
2022-07-29T00:37:03.700Z,19.80
2022-07-29T00:37:45.495Z,19.80
2022-07-29T00:38:27.242Z,19.80
2022-07-29T00:39:08.951Z,19.80
2022-07-29T00:39:51.287Z,19.80
2022-07-29T00:40:32.974Z,19.80
2022-07-29T00:41:14.801Z,19.80
2022-07-29T00:41:56.539Z,19.80
2022-07-29T00:42:49.297Z,19.80
2022-07-29T00:43:31.002Z,19.80
2022-07-29T00:44:13.026Z,19.80
2022-07-29T00:44:55.080Z,19.80
2022-07-29T00:45:37.011Z,19.80
2022-07-29T00:46:18.775Z,19.80
2022-07-29T00:47:00.575Z,19.80
2022-07-29T00:47:42.401Z,19.80
2022-07-29T00:48:24.182Z,19.80
2022-07-29T00:49:05.910Z,19.80
2022-07-29T00:49:47.988Z,19.80
2022-07-29T00:50:29.815Z,19.80
2022-07-29T00:51:12.097Z,19.80
2022-07-29T00:51:54.365Z,19.80
2022-07-29T00:52:38.641Z,19.80
2022-07-29T00:53:21.149Z,19.80
2022-07-29T00:54:03.791Z,19.80
2022-07-29T00:54:45.656Z,19.70
2022-07-29T00:55:27.601Z,19.70
2022-07-29T00:56:09.429Z,19.70
2022-07-29T00:56:51.171Z,19.70
2022-07-29T00:57:33.587Z,19.70
2022-07-29T00:58:15.484Z,19.70
2022-07-29T00:58:58.551Z,19.70
2022-07-29T00:59:41.384Z,19.70
2022-07-29T01:00:25.501Z,19.70
2022-07-29T01:01:07.262Z,19.70
2022-07-29T01:01:49.146Z,19.70
2022-07-29T01:02:31.049Z,19.70
2022-07-29T01:03:12.896Z,19.70
2022-07-29T01:03:54.774Z,19.60
2022-07-29T01:04:36.631Z,19.70
2022-07-29T01:05:21.969Z,19.70
2022-07-29T01:06:04.044Z,19.70
2022-07-29T01:06:45.841Z,19.70
2022-07-29T01:07:28.690Z,19.70
2022-07-29T01:08:12.912Z,19.70
2022-07-29T01:08:55.205Z,19.70
2022-07-29T01:09:46.133Z,19.70
2022-07-29T01:10:29.988Z,19.70
2022-07-29T01:11:12.236Z,19.70
2022-07-29T01:11:54.650Z,19.70
2022-07-29T01:12:38.135Z,19.70
2022-07-29T01:13:20.630Z,19.70
2022-07-29T01:14:03.348Z,19.70
2022-07-29T01:14:46.588Z,19.70
2022-07-29T01:15:28.647Z,19.70
2022-07-29T01:16:35.832Z,19.70
2022-07-29T01:17:29.634Z,19.70
2022-07-29T01:18:22.182Z,19.70
2022-07-29T01:19:41.379Z,19.70
2022-07-29T01:20:39.688Z,19.70
2022-07-29T01:21:27.652Z,19.70
2022-07-29T01:22:43.248Z,19.70
2022-07-29T01:23:51.085Z,19.70
2022-07-29T01:25:03.386Z,19.60
2022-07-29T01:26:04.002Z,19.60
2022-07-29T01:26:50.538Z,19.60
2022-07-29T01:28:13.718Z,19.60
2022-07-29T01:29:19.871Z,19.60
2022-07-29T01:30:05.376Z,19.60
2022-07-29T01:30:51.112Z,19.60
2022-07-29T01:32:00.523Z,19.60
2022-07-29T01:32:45.929Z,19.60
2022-07-29T01:33:49.010Z,19.60
2022-07-29T01:35:07.294Z,19.60
2022-07-29T01:35:49.133Z,19.60
2022-07-29T01:36:30.877Z,19.50
2022-07-29T01:37:20.781Z,19.50
2022-07-29T01:38:11.840Z,19.50
2022-07-29T01:39:03.395Z,19.50
2022-07-29T01:39:48.519Z,19.50
2022-07-29T01:40:44.021Z,19.50
2022-07-29T01:41:28.429Z,19.50
2022-07-29T01:42:22.183Z,19.50
2022-07-29T01:43:22.085Z,19.50
2022-07-29T01:44:13.991Z,19.50
2022-07-29T01:45:01.812Z,19.50
2022-07-29T01:45:52.668Z,19.50
2022-07-29T01:46:42.310Z,19.50
2022-07-29T01:47:26.816Z,19.50
2022-07-29T01:48:14.176Z,19.50
2022-07-29T01:49:00.954Z,19.50
2022-07-29T01:49:48.674Z,19.50
2022-07-29T01:50:43.132Z,19.50
2022-07-29T01:51:34.955Z,19.50
2022-07-29T01:52:31.819Z,19.50
2022-07-29T01:53:19.175Z,20.70
2022-07-29T01:54:14.312Z,19.50
2022-07-29T01:54:59.520Z,19.50
2022-07-29T01:55:45.115Z,19.50
2022-07-29T01:56:30.671Z,19.50
2022-07-29T01:57:18.870Z,19.50
2022-07-29T01:58:02.016Z,19.50
2022-07-29T01:58:46.281Z,19.50
2022-07-29T01:59:29.934Z,19.50
2022-07-29T02:00:14.002Z,19.50
2022-07-29T02:00:58.251Z,19.40
2022-07-29T02:01:43.871Z,19.40
2022-07-29T02:02:27.130Z,19.40
2022-07-29T02:03:12.106Z,19.40
2022-07-29T02:03:55.794Z,19.40
2022-07-29T02:04:40.129Z,19.30
2022-07-29T02:05:25.302Z,19.30
2022-07-29T02:06:10.147Z,19.40
2022-07-29T02:06:55.411Z,19.40
2022-07-29T02:07:38.623Z,19.40
2022-07-29T02:08:21.982Z,19.40
2022-07-29T02:09:04.968Z,19.40
2022-07-29T02:09:52.845Z,19.40
2022-07-29T02:10:36.115Z,19.40
2022-07-29T02:11:18.351Z,19.30
2022-07-29T02:12:02.134Z,19.30
2022-07-29T02:12:50.590Z,19.30
2022-07-29T02:13:34.100Z,19.30
2022-07-29T02:14:18.845Z,19.20
2022-07-29T02:15:02.962Z,19.20
2022-07-29T02:15:47.307Z,19.20
2022-07-29T02:16:32.934Z,19.10
2022-07-29T02:17:16.817Z,19.10
2022-07-29T02:18:07.394Z,19.20
2022-07-29T02:18:53.369Z,19.10
2022-07-29T02:19:38.283Z,19.20
2022-07-29T02:20:20.542Z,19.20
2022-07-29T02:21:03.482Z,19.20
2022-07-29T02:21:47.373Z,19.20
2022-07-29T02:22:32.004Z,19.20
2022-07-29T02:23:18.790Z,19.20
2022-07-29T02:24:02.875Z,19.20
2022-07-29T02:24:45.756Z,19.30
2022-07-29T02:25:37.155Z,19.20
2022-07-29T02:26:21.222Z,19.30
2022-07-29T02:27:04.851Z,19.30
2022-07-29T02:27:49.793Z,19.30
2022-07-29T02:28:33.774Z,19.30
2022-07-29T02:29:16.364Z,19.30
2022-07-29T02:29:59.584Z,19.30
2022-07-29T02:30:43.840Z,19.20
2022-07-29T02:31:27.855Z,19.30
2022-07-29T02:32:12.084Z,19.20
2022-07-29T02:32:55.582Z,19.20
2022-07-29T02:33:38.599Z,19.20
2022-07-29T02:34:22.179Z,19.20
2022-07-29T02:35:05.378Z,19.20
2022-07-29T02:35:48.910Z,19.10
2022-07-29T02:36:32.092Z,19.10
2022-07-29T02:37:14.945Z,19.10
2022-07-29T02:38:15.584Z,19.10
2022-07-29T02:39:01.491Z,19.00
2022-07-29T02:39:45.721Z,19.00
2022-07-29T02:40:27.631Z,19.00
2022-07-29T02:41:12.867Z,18.90
2022-07-29T02:42:02.437Z,19.00
2022-07-29T02:42:45.910Z,19.00
2022-07-29T02:43:29.046Z,19.00
2022-07-29T02:44:17.400Z,19.00
2022-07-29T02:44:59.426Z,19.00
2022-07-29T02:45:41.411Z,19.00
2022-07-29T02:46:33.848Z,19.00
2022-07-29T02:47:41.292Z,19.00
2022-07-29T02:48:33.503Z,18.90
2022-07-29T02:49:43.656Z,18.90
2022-07-29T02:50:34.686Z,18.80
2022-07-29T02:51:41.129Z,18.80
2022-07-29T02:52:32.542Z,18.70
2022-07-29T02:53:18.763Z,18.70
2022-07-29T02:54:06.488Z,18.70
2022-07-29T02:54:59.216Z,18.80
2022-07-29T02:56:11.609Z,18.80
2022-07-29T02:56:56.504Z,18.80
2022-07-29T02:57:54.665Z,18.80
2022-07-29T02:58:42.494Z,18.90
2022-07-29T02:59:28.625Z,18.80
2022-07-29T03:00:12.278Z,18.90
2022-07-29T03:00:55.708Z,18.90
2022-07-29T03:01:42.866Z,18.80
2022-07-29T03:02:27.796Z,18.80
2022-07-29T03:03:13.993Z,18.70
2022-07-29T03:03:56.458Z,18.70
2022-07-29T03:04:41.337Z,18.70
2022-07-29T03:05:23.936Z,18.70
2022-07-29T03:06:07.333Z,18.70
2022-07-29T03:06:50.935Z,18.60
2022-07-29T03:07:34.423Z,18.70
2022-07-29T03:08:16.895Z,18.70
2022-07-29T03:09:00.056Z,18.70
2022-07-29T03:09:43.755Z,18.70
2022-07-29T03:10:27.791Z,18.70
2022-07-29T03:11:10.909Z,18.70
2022-07-29T03:11:55.338Z,18.60
2022-07-29T03:12:37.748Z,18.60
2022-07-29T03:13:20.562Z,18.60
2022-07-29T03:14:03.591Z,18.60
2022-07-29T03:14:45.953Z,18.60
2022-07-29T03:15:28.809Z,18.60
2022-07-29T03:16:11.295Z,18.70
2022-07-29T03:16:53.411Z,18.60
2022-07-29T03:17:35.426Z,18.50
2022-07-29T03:18:17.564Z,18.60
2022-07-29T03:18:59.834Z,18.60
2022-07-29T03:19:42.603Z,18.60
2022-07-29T03:20:24.553Z,18.60
2022-07-29T03:21:06.553Z,18.60
2022-07-29T03:21:48.617Z,18.60
2022-07-29T03:22:30.508Z,18.60
2022-07-29T03:23:12.435Z,18.60
2022-07-29T03:23:54.119Z,18.50
2022-07-29T03:24:37.395Z,18.50
2022-07-29T03:25:20.658Z,18.60
2022-07-29T03:26:02.573Z,18.50
2022-07-29T03:26:44.355Z,18.60
2022-07-29T03:27:26.041Z,18.50
2022-07-29T03:28:07.730Z,18.50
2022-07-29T03:28:49.501Z,18.50
2022-07-29T03:29:33.876Z,18.50
2022-07-29T03:30:21.753Z,18.40
2022-07-29T03:31:03.854Z,18.40
2022-07-29T03:31:47.463Z,18.40
2022-07-29T03:32:30.205Z,18.40
2022-07-29T03:33:13.526Z,18.40
2022-07-29T03:33:55.635Z,18.40
2022-07-29T03:34:38.850Z,18.40
2022-07-29T03:35:21.319Z,18.50
2022-07-29T03:36:03.408Z,18.50
2022-07-29T03:36:45.271Z,18.50
2022-07-29T03:37:27.278Z,18.50
2022-07-29T03:38:09.185Z,18.40
2022-07-29T03:38:51.442Z,18.40
2022-07-29T03:39:38.989Z,18.40
2022-07-29T03:40:32.378Z,18.40
2022-07-29T03:41:15.430Z,18.40
2022-07-29T03:41:59.734Z,18.40
2022-07-29T03:42:43.289Z,18.40
2022-07-29T03:43:28.680Z,18.40
2022-07-29T03:44:10.961Z,18.40
2022-07-29T03:44:53.541Z,18.40
2022-07-29T03:45:36.422Z,18.40
2022-07-29T03:46:20.843Z,18.60
2022-07-29T03:47:05.040Z,18.40
2022-07-29T03:47:57.028Z,18.40
2022-07-29T03:48:46.106Z,18.40
2022-07-29T03:49:28.942Z,18.40
2022-07-29T03:50:15.391Z,18.40
2022-07-29T03:50:57.528Z,18.40
2022-07-29T03:51:39.724Z,18.40
2022-07-29T03:52:22.442Z,18.40
2022-07-29T03:53:04.666Z,18.40
2022-07-29T03:53:46.373Z,18.30
2022-07-29T03:54:28.333Z,18.30
2022-07-29T03:55:10.839Z,18.30
2022-07-29T03:55:57.303Z,18.30
2022-07-29T03:56:42.979Z,18.30
2022-07-29T03:57:31.343Z,18.40
2022-07-29T03:58:14.564Z,18.30
2022-07-29T03:58:57.035Z,18.30
2022-07-29T03:59:40.201Z,18.30
2022-07-29T04:00:24.532Z,18.30
2022-07-29T04:01:07.398Z,18.30
2022-07-29T04:01:49.813Z,18.30
2022-07-29T04:02:33.087Z,18.30
2022-07-29T04:03:15.745Z,18.30
2022-07-29T04:03:57.977Z,18.20
2022-07-29T04:04:39.826Z,18.20
2022-07-29T04:05:22.158Z,18.20
2022-07-29T04:06:06.990Z,18.20
2022-07-29T04:06:48.987Z,18.20
2022-07-29T04:07:30.751Z,18.30
2022-07-29T04:08:12.474Z,18.30
2022-07-29T04:08:54.220Z,18.20
2022-07-29T04:09:35.957Z,18.20
2022-07-29T04:10:18.068Z,18.20
2022-07-29T04:11:12.512Z,18.30
2022-07-29T04:12:02.475Z,18.20
2022-07-29T04:12:45.531Z,18.30
2022-07-29T04:13:27.293Z,18.30
2022-07-29T04:14:09.238Z,18.30
2022-07-29T04:14:51.180Z,18.20
2022-07-29T04:15:32.985Z,18.20
2022-07-29T04:16:14.754Z,18.20
2022-07-29T04:16:56.576Z,18.20
2022-07-29T04:17:38.754Z,18.20
2022-07-29T04:18:20.604Z,18.20
2022-07-29T04:19:03.166Z,18.30
2022-07-29T04:19:44.895Z,18.20
2022-07-29T04:20:26.722Z,18.30
2022-07-29T04:21:08.487Z,18.20
2022-07-29T04:21:50.450Z,18.20
2022-07-29T04:22:32.214Z,18.20
2022-07-29T04:23:14.047Z,18.20
2022-07-29T04:23:55.860Z,18.20
2022-07-29T04:24:37.606Z,18.20
2022-07-29T04:25:19.316Z,18.20
2022-07-29T04:26:02.079Z,18.20
2022-07-29T04:26:44.032Z,18.20
2022-07-29T04:27:25.851Z,18.20
2022-07-29T04:28:08.712Z,18.20
2022-07-29T04:28:50.503Z,18.20
2022-07-29T04:29:32.187Z,18.20
2022-07-29T04:30:13.895Z,18.10
2022-07-29T04:30:55.677Z,18.10
2022-07-29T04:31:37.457Z,18.10
2022-07-29T04:32:19.224Z,18.10
2022-07-29T04:33:05.650Z,18.20
2022-07-29T04:33:47.499Z,18.20
2022-07-29T04:34:29.247Z,18.20
2022-07-29T04:35:11.014Z,18.20
2022-07-29T04:35:52.731Z,18.20
2022-07-29T04:36:37.477Z,18.30
2022-07-29T04:37:19.542Z,18.20
2022-07-29T04:38:01.423Z,18.50
2022-07-29T04:38:43.108Z,18.30
2022-07-29T04:39:25.421Z,18.30
2022-07-29T04:40:11.715Z,18.20
2022-07-29T04:40:53.625Z,18.20
2022-07-29T04:41:36.574Z,18.20
2022-07-29T04:42:18.349Z,18.20
2022-07-29T04:43:09.447Z,18.20
2022-07-29T04:43:53.628Z,18.20
2022-07-29T04:44:37.127Z,18.20
2022-07-29T04:45:22.535Z,18.10
2022-07-29T04:46:04.890Z,18.20
2022-07-29T04:46:46.837Z,18.20
2022-07-29T04:47:28.650Z,18.20
2022-07-29T04:48:10.430Z,18.20
2022-07-29T04:48:52.201Z,18.20
2022-07-29T04:49:33.961Z,18.20
2022-07-29T04:50:15.661Z,18.20
2022-07-29T04:50:57.760Z,18.30
2022-07-29T04:51:40.648Z,18.30
2022-07-29T04:52:22.571Z,18.20
2022-07-29T04:53:04.316Z,18.20
2022-07-29T04:53:46.632Z,18.20
2022-07-29T04:54:28.332Z,18.10
2022-07-29T04:55:10.509Z,18.20
2022-07-29T04:55:52.304Z,18.20
2022-07-29T04:56:34.074Z,18.20
2022-07-29T04:57:15.874Z,18.20
2022-07-29T04:57:57.590Z,18.20
2022-07-29T04:58:40.575Z,18.20
2022-07-29T04:59:22.317Z,18.20
2022-07-29T05:00:06.445Z,18.20
2022-07-29T05:00:48.231Z,18.30
2022-07-29T05:01:30.096Z,18.20
2022-07-29T05:02:11.912Z,18.20
2022-07-29T05:02:53.729Z,18.20
2022-07-29T05:03:36.349Z,18.20
2022-07-29T05:04:18.427Z,18.20
2022-07-29T05:05:00.561Z,18.20
2022-07-29T05:05:43.214Z,18.20
2022-07-29T05:06:24.961Z,18.20
2022-07-29T05:07:06.664Z,18.20
2022-07-29T05:07:48.417Z,18.10
2022-07-29T05:08:30.159Z,18.10
2022-07-29T05:09:11.880Z,18.10
2022-07-29T05:09:54.004Z,18.20
2022-07-29T05:10:38.953Z,18.20
2022-07-29T05:11:22.343Z,18.20
2022-07-29T05:12:05.387Z,18.20
2022-07-29T05:12:47.308Z,18.30
2022-07-29T05:13:29.016Z,18.30
2022-07-29T05:14:27.895Z,18.30
2022-07-29T05:15:10.503Z,18.30
2022-07-29T05:15:52.283Z,18.30
2022-07-29T05:16:34.417Z,18.20
2022-07-29T05:17:16.151Z,18.20
2022-07-29T05:17:57.865Z,18.20
2022-07-29T05:18:40.289Z,18.20
2022-07-29T05:19:21.976Z,18.20
2022-07-29T05:20:04.257Z,18.20
2022-07-29T05:20:45.956Z,18.20
2022-07-29T05:21:27.729Z,18.20
2022-07-29T05:22:09.467Z,18.20
2022-07-29T05:22:51.183Z,18.20
2022-07-29T05:23:32.947Z,18.20
2022-07-29T05:24:15.071Z,18.20
2022-07-29T05:24:57.849Z,18.30
2022-07-29T05:25:44.416Z,18.30
2022-07-29T05:26:26.611Z,18.20
2022-07-29T05:27:08.360Z,18.30
2022-07-29T05:27:51.008Z,18.20
2022-07-29T05:28:38.747Z,18.30
2022-07-29T05:29:43.042Z,18.30
2022-07-29T05:30:23.150Z,18.30
2022-07-29T05:31:04.960Z,18.20
2022-07-29T05:31:46.733Z,18.20
2022-07-29T05:32:28.441Z,18.20
2022-07-29T05:33:35.323Z,18.20
2022-07-29T05:34:11.909Z,18.20
2022-07-29T05:34:53.658Z,18.20
2022-07-29T05:35:35.980Z,18.20
2022-07-29T05:36:17.699Z,18.20
2022-07-29T05:36:59.581Z,18.20
2022-07-29T05:37:41.634Z,18.20
2022-07-29T05:38:23.341Z,18.30
2022-07-29T05:39:05.212Z,18.20
2022-07-29T05:39:50.379Z,18.30
2022-07-29T05:40:33.317Z,18.30
2022-07-29T05:41:15.021Z,18.40
2022-07-29T05:41:56.780Z,18.30
2022-07-29T05:42:38.513Z,18.40
2022-07-29T05:43:20.234Z,18.40
2022-07-29T05:44:01.954Z,18.40
2022-07-29T05:44:43.816Z,18.40
2022-07-29T05:45:25.728Z,18.40
2022-07-29T05:46:07.510Z,18.40
2022-07-29T05:46:49.554Z,18.50
2022-07-29T05:47:31.454Z,18.40
2022-07-29T05:48:13.128Z,18.50
2022-07-29T05:48:54.870Z,18.40
2022-07-29T05:49:36.655Z,18.50
2022-07-29T05:50:18.482Z,18.50
2022-07-29T05:51:00.314Z,18.50
2022-07-29T05:51:42.010Z,18.50
2022-07-29T05:52:24.446Z,18.60
2022-07-29T05:53:19.617Z,18.60
2022-07-29T05:54:02.638Z,18.60
2022-07-29T05:54:44.717Z,18.60
2022-07-29T05:55:26.438Z,18.60
2022-07-29T05:56:08.292Z,18.50
2022-07-29T05:56:50.013Z,18.50
2022-07-29T05:57:32.071Z,18.40
2022-07-29T05:58:13.823Z,18.50
2022-07-29T05:58:55.551Z,18.50
2022-07-29T05:59:38.176Z,18.60
2022-07-29T06:00:19.990Z,18.60
2022-07-29T06:01:01.818Z,18.60
2022-07-29T06:01:43.727Z,18.60
2022-07-29T06:02:25.518Z,18.60
2022-07-29T06:03:07.290Z,18.70
2022-07-29T06:03:49.054Z,18.60
2022-07-29T06:04:30.814Z,18.70
2022-07-29T06:05:17.063Z,18.70
2022-07-29T06:05:59.072Z,18.70
2022-07-29T06:06:40.819Z,18.70
2022-07-29T06:07:22.599Z,18.70
2022-07-29T06:08:06.671Z,18.70
2022-07-29T06:08:48.378Z,18.70
2022-07-29T06:09:30.472Z,18.70
2022-07-29T06:10:12.228Z,18.70
2022-07-29T06:10:53.954Z,18.70
2022-07-29T06:11:35.680Z,18.70
2022-07-29T06:12:18.193Z,18.70
2022-07-29T06:12:59.920Z,18.70
2022-07-29T06:13:41.684Z,18.70
2022-07-29T06:14:23.383Z,18.70
2022-07-29T06:15:05.621Z,18.70
2022-07-29T06:15:47.449Z,18.80
2022-07-29T06:16:29.899Z,18.80
2022-07-29T06:17:12.685Z,18.80
2022-07-29T06:17:59.952Z,18.80
2022-07-29T06:18:43.131Z,18.70
2022-07-29T06:19:24.833Z,18.80
2022-07-29T06:20:07.608Z,18.80
2022-07-29T06:20:49.416Z,18.70
2022-07-29T06:21:31.140Z,18.70
2022-07-29T06:22:12.828Z,18.70
2022-07-29T06:22:54.584Z,18.70
2022-07-29T06:23:37.722Z,18.70
2022-07-29T06:24:20.147Z,18.60
2022-07-29T06:25:02.865Z,18.60
2022-07-29T06:25:44.707Z,18.60
2022-07-29T06:26:30.982Z,18.50
2022-07-29T06:27:14.721Z,18.50
2022-07-29T06:27:56.440Z,18.50
2022-07-29T06:28:38.166Z,18.60
2022-07-29T06:29:19.906Z,18.50
2022-07-29T06:30:02.663Z,18.60
2022-07-29T06:30:44.468Z,18.50
2022-07-29T06:31:26.289Z,18.50
2022-07-29T06:32:10.008Z,18.50
2022-07-29T06:32:51.915Z,18.50
2022-07-29T06:33:34.392Z,18.50
2022-07-29T06:34:16.681Z,18.50
2022-07-29T06:35:31.923Z,18.40
2022-07-29T06:36:01.263Z,18.40
2022-07-29T06:36:43.678Z,18.40
2022-07-29T06:37:25.850Z,18.40
2022-07-29T06:38:29.954Z,18.30
2022-07-29T06:39:12.418Z,18.20
2022-07-29T06:40:14.084Z,18.30
2022-07-29T06:41:02.198Z,18.30
2022-07-29T06:41:48.208Z,18.40
2022-07-29T06:42:29.938Z,18.40
2022-07-29T06:43:11.778Z,18.40
2022-07-29T06:43:55.241Z,18.40
2022-07-29T06:44:38.808Z,18.40
2022-07-29T06:45:20.850Z,18.30
2022-07-29T06:46:07.644Z,18.30
2022-07-29T06:46:51.003Z,18.30
2022-07-29T06:47:32.702Z,18.30
2022-07-29T06:48:14.400Z,18.30
2022-07-29T06:48:56.226Z,18.30
2022-07-29T06:49:37.996Z,18.40
2022-07-29T06:50:19.869Z,18.30
2022-07-29T06:51:02.635Z,18.40
2022-07-29T06:51:44.358Z,18.40
2022-07-29T06:52:26.407Z,18.40
2022-07-29T06:53:08.103Z,18.40
2022-07-29T06:54:00.024Z,18.40
2022-07-29T06:54:48.946Z,18.40
2022-07-29T06:55:30.805Z,18.40
2022-07-29T06:56:14.818Z,18.40
2022-07-29T06:56:56.585Z,18.40
2022-07-29T06:57:38.406Z,18.70
2022-07-29T06:58:21.442Z,18.40
2022-07-29T06:59:03.510Z,18.40
2022-07-29T06:59:45.245Z,18.40
2022-07-29T07:00:26.993Z,18.40
2022-07-29T07:01:08.817Z,18.40
2022-07-29T07:01:50.674Z,18.30
2022-07-29T07:02:33.012Z,18.20
2022-07-29T07:03:16.137Z,18.20
2022-07-29T07:03:57.829Z,18.30
2022-07-29T07:04:39.691Z,18.20
2022-07-29T07:05:21.487Z,18.20
2022-07-29T07:06:04.292Z,18.10
2022-07-29T07:06:46.039Z,18.10
2022-07-29T07:07:27.788Z,18.10
2022-07-29T07:08:09.601Z,18.10
2022-07-29T07:08:51.398Z,18.10
2022-07-29T07:09:40.315Z,18.10
2022-07-29T07:10:22.640Z,18.20
2022-07-29T07:11:07.119Z,18.10
2022-07-29T07:11:49.735Z,18.10
2022-07-29T07:12:32.056Z,18.20
2022-07-29T07:13:14.095Z,18.20
2022-07-29T07:14:00.639Z,18.20
2022-07-29T07:14:44.582Z,18.20
2022-07-29T07:15:39.918Z,18.20
2022-07-29T07:16:22.019Z,18.30
2022-07-29T07:17:04.884Z,18.10
2022-07-29T07:17:46.659Z,18.10
2022-07-29T07:18:28.972Z,18.00
2022-07-29T07:19:10.732Z,17.90
2022-07-29T07:19:52.493Z,17.90
2022-07-29T07:20:35.404Z,17.80
2022-07-29T07:21:19.107Z,17.80
2022-07-29T07:22:01.338Z,17.90
2022-07-29T07:22:43.546Z,18.00
2022-07-29T07:23:25.961Z,18.00
2022-07-29T07:24:07.855Z,18.00
2022-07-29T07:24:49.544Z,18.00
2022-07-29T07:25:31.738Z,18.10
2022-07-29T07:26:13.457Z,17.90
2022-07-29T07:26:55.223Z,18.00
2022-07-29T07:27:37.043Z,18.00
2022-07-29T07:28:19.334Z,18.00
2022-07-29T07:29:06.879Z,18.00
2022-07-29T07:29:48.735Z,18.10
2022-07-29T07:30:30.495Z,18.10
2022-07-29T07:31:12.843Z,18.10
2022-07-29T07:31:58.910Z,18.10
2022-07-29T07:32:42.533Z,18.20
2022-07-29T07:33:24.326Z,18.20
2022-07-29T07:34:06.324Z,18.20
2022-07-29T07:34:48.011Z,18.20
2022-07-29T07:35:29.908Z,18.10
2022-07-29T07:36:11.777Z,18.20
2022-07-29T07:36:53.485Z,18.20
2022-07-29T07:37:35.650Z,18.20
2022-07-29T07:38:17.465Z,18.20
2022-07-29T07:38:59.276Z,18.20
2022-07-29T07:39:41.361Z,18.20
2022-07-29T07:40:23.204Z,18.20
2022-07-29T07:41:04.981Z,18.20
2022-07-29T07:41:46.707Z,18.20
2022-07-29T07:42:28.661Z,18.20
2022-07-29T07:43:10.462Z,18.20
2022-07-29T07:43:52.203Z,18.20
2022-07-29T07:44:46.269Z,18.20
2022-07-29T07:45:38.145Z,18.20
2022-07-29T07:46:20.210Z,18.20
2022-07-29T07:47:03.904Z,18.20
2022-07-29T07:47:50.770Z,18.20
2022-07-29T07:48:32.743Z,18.20
2022-07-29T07:49:14.522Z,18.20
2022-07-29T07:49:56.308Z,18.20
2022-07-29T07:50:38.273Z,18.30
2022-07-29T07:51:20.057Z,18.20
2022-07-29T07:52:01.775Z,18.30
2022-07-29T07:52:48.672Z,18.10
2022-07-29T07:53:30.765Z,18.30
2022-07-29T07:54:12.775Z,18.30
2022-07-29T07:54:55.110Z,18.30
2022-07-29T07:56:45.811Z,18.20
2022-07-29T07:57:27.687Z,18.20
2022-07-29T07:58:10.260Z,18.20
2022-07-29T07:58:52.016Z,18.20
2022-07-29T08:03:57.966Z,18.30
2022-07-29T08:04:41.447Z,18.20
2022-07-29T08:05:23.215Z,18.20
2022-07-29T08:06:05.526Z,18.20
2022-07-29T08:06:47.299Z,18.20
2022-07-29T08:07:31.280Z,18.30
2022-07-29T08:08:12.987Z,18.30
2022-07-29T08:08:56.450Z,18.30
2022-07-29T08:09:38.340Z,18.30
2022-07-29T08:10:39.279Z,18.30
2022-07-29T08:11:21.815Z,18.30
2022-07-29T08:12:04.842Z,18.30
2022-07-29T08:12:46.564Z,18.30
2022-07-29T08:13:29.312Z,18.40
2022-07-29T08:14:11.138Z,18.30
2022-07-29T08:14:55.553Z,18.30
2022-07-29T08:15:37.345Z,18.30
2022-07-29T08:16:21.061Z,18.30
2022-07-29T08:17:02.927Z,18.30
2022-07-29T08:17:44.668Z,18.40
2022-07-29T08:18:27.855Z,18.30
2022-07-29T08:19:10.078Z,18.30
2022-07-29T08:19:51.854Z,18.30
2022-07-29T08:20:36.333Z,18.40
2022-07-29T08:21:18.609Z,18.20
2022-07-29T08:22:00.465Z,18.30
2022-07-29T08:22:42.212Z,18.30
2022-07-29T08:23:25.315Z,18.40
2022-07-29T08:24:26.316Z,18.40
2022-07-29T08:25:08.233Z,18.40
2022-07-29T08:25:50.974Z,18.40
2022-07-29T08:26:32.686Z,18.40
2022-07-29T08:27:40.780Z,18.40
2022-07-29T08:28:17.501Z,18.40
2022-07-29T08:28:59.233Z,18.30
2022-07-29T08:29:41.126Z,18.20
2022-07-29T08:30:23.006Z,18.20
2022-07-29T08:31:04.821Z,18.20
2022-07-29T08:31:46.884Z,18.20
2022-07-29T08:32:51.988Z,18.10
2022-07-29T08:33:31.210Z,18.10
2022-07-29T08:34:13.046Z,18.10
2022-07-29T08:34:54.875Z,18.10
2022-07-29T08:35:36.759Z,18.10
2022-07-29T08:36:18.836Z,18.10
2022-07-29T08:37:00.589Z,18.10
2022-07-29T08:37:42.855Z,18.10
2022-07-29T08:38:24.627Z,18.10
2022-07-29T08:39:06.407Z,18.20
2022-07-29T08:39:48.155Z,18.20
2022-07-29T08:40:32.046Z,18.20
2022-07-29T08:41:14.568Z,18.20
2022-07-29T08:41:57.451Z,18.20
2022-07-29T08:42:39.521Z,18.30
2022-07-29T08:43:21.285Z,18.30
2022-07-29T08:44:03.193Z,18.30
2022-07-29T08:44:45.037Z,18.40
2022-07-29T08:45:29.041Z,18.40
2022-07-29T08:46:11.193Z,18.40
2022-07-29T08:46:53.167Z,18.50
2022-07-29T08:47:37.756Z,18.50
2022-07-29T08:48:22.332Z,18.60
2022-07-29T08:49:04.170Z,18.60
2022-07-29T08:49:48.043Z,18.60
2022-07-29T08:50:29.787Z,18.70
2022-07-29T08:51:16.111Z,18.60
2022-07-29T08:51:59.674Z,18.70
2022-07-29T08:52:42.537Z,18.70
2022-07-29T08:53:27.769Z,18.70
2022-07-29T08:54:11.042Z,18.70
2022-07-29T08:54:54.277Z,18.70
2022-07-29T08:55:41.999Z,18.70
2022-07-29T08:56:24.325Z,18.70
2022-07-29T08:57:06.648Z,18.70
2022-07-29T08:57:50.873Z,18.80
2022-07-29T08:58:36.706Z,18.80
2022-07-29T08:59:25.550Z,18.80
2022-07-29T09:00:11.627Z,18.80
2022-07-29T09:00:55.961Z,18.70
2022-07-29T09:01:42.520Z,18.70
2022-07-29T09:02:29.803Z,18.70
2022-07-29T09:03:15.734Z,18.80
2022-07-29T09:03:57.894Z,18.80
2022-07-29T09:04:40.725Z,18.80
2022-07-29T09:05:24.709Z,18.80
2022-07-29T09:06:07.070Z,18.70
2022-07-29T09:06:52.302Z,18.80
2022-07-29T09:07:34.738Z,18.70
2022-07-29T09:08:18.094Z,18.70
2022-07-29T09:09:01.206Z,18.70
2022-07-29T09:09:43.985Z,18.80
2022-07-29T09:10:25.874Z,18.80
2022-07-29T09:11:08.453Z,18.80
2022-07-29T09:11:50.279Z,18.70
2022-07-29T09:12:37.576Z,18.70
2022-07-29T09:13:19.891Z,18.70
2022-07-29T09:14:01.853Z,18.70
2022-07-29T09:14:43.675Z,18.70
2022-07-29T09:15:25.879Z,18.70
2022-07-29T09:16:09.608Z,18.70
2022-07-29T09:16:57.325Z,18.80
2022-07-29T09:17:43.061Z,18.70
2022-07-29T09:18:44.886Z,18.80
2022-07-29T09:19:32.317Z,18.80
2022-07-29T09:20:20.752Z,18.80
2022-07-29T09:21:22.277Z,18.80
2022-07-29T09:22:08.053Z,18.90
2022-07-29T09:22:51.851Z,18.90
2022-07-29T09:23:33.616Z,19.00
2022-07-29T09:24:15.427Z,19.00
2022-07-29T09:24:57.119Z,19.00
2022-07-29T09:25:41.783Z,19.10
2022-07-29T09:26:29.799Z,19.20
2022-07-29T09:27:21.388Z,19.30
2022-07-29T09:28:17.509Z,19.40
2022-07-29T09:29:00.123Z,19.50
2022-07-29T09:29:41.906Z,19.50
2022-07-29T09:30:28.865Z,19.60
2022-07-29T09:31:13.544Z,19.60
2022-07-29T09:31:56.555Z,19.50
2022-07-29T09:33:02.386Z,19.50
2022-07-29T09:33:44.204Z,19.50
2022-07-29T09:34:29.401Z,19.50
2022-07-29T09:35:23.002Z,19.50
2022-07-29T09:36:10.502Z,19.60
2022-07-29T09:36:53.861Z,19.70